createdAt,value
2022-09-23T00:02:56.045Z,75.89
2022-09-23T00:06:33.971Z,75.88
2022-09-23T00:10:13.183Z,75.88
2022-09-23T00:13:53.437Z,76.09
2022-09-23T00:17:32.162Z,76.06
2022-09-23T00:21:13.845Z,75.66
2022-09-23T00:24:50.891Z,75.68
2022-09-23T00:28:28.143Z,76.02
2022-09-23T00:32:05.811Z,75.13
2022-09-23T00:35:42.650Z,75.34
2022-09-23T00:39:19.908Z,75.86
2022-09-23T00:42:57.162Z,75.74
2022-09-23T00:46:42.830Z,75.44
2022-09-23T00:50:34.792Z,75.32
2022-09-23T00:54:14.566Z,75.47
2022-09-23T00:57:55.747Z,75.19
2022-09-23T01:01:33.023Z,75.66
2022-09-23T01:05:12.097Z,75.33
2022-09-23T01:08:50.167Z,75.39
2022-09-23T01:12:54.336Z,74.96
2022-09-23T01:16:40.768Z,75.28
2022-09-23T01:20:40.261Z,74.96
2022-09-23T01:25:10.339Z,74.81
2022-09-23T01:29:17.574Z,75.55
2022-09-23T01:33:12.278Z,75.46
2022-09-23T01:36:57.794Z,75.29
2022-09-23T01:40:41.892Z,75.29
2022-09-23T01:44:46.258Z,75.32
2022-09-23T01:48:38.506Z,75.20
2022-09-23T01:52:27.666Z,75.23
2022-09-23T01:56:21.042Z,75.44
2022-09-23T02:00:14.110Z,75.60
2022-09-23T02:04:23.970Z,75.30
2022-09-23T02:07:40.057Z,75.49
2022-09-23T02:11:18.299Z,75.45
2022-09-23T02:14:58.438Z,75.39
2022-09-23T02:18:56.324Z,75.43
2022-09-23T02:22:56.910Z,75.27
2022-09-23T02:26:47.603Z,75.49
2022-09-23T02:30:30.399Z,75.37
2022-09-23T02:34:29.898Z,75.81
2022-09-23T02:38:38.817Z,75.94
2022-09-23T02:42:22.502Z,75.73
2022-09-23T02:46:00.671Z,75.64
2022-09-23T02:49:38.560Z,75.58
2022-09-23T02:53:15.917Z,75.47
2022-09-23T02:56:53.679Z,75.80
2022-09-23T03:00:57.622Z,75.56
2022-09-23T03:05:05.598Z,75.58
2022-09-23T03:08:58.358Z,75.97
2022-09-23T03:13:17.723Z,75.75
2022-09-23T03:17:11.242Z,75.83
2022-09-23T03:20:56.577Z,76.01
2022-09-23T03:24:36.689Z,75.68
2022-09-23T03:28:17.864Z,75.78
2022-09-23T03:31:57.302Z,75.88
2022-09-23T03:35:42.031Z,75.73
2022-09-23T03:39:44.309Z,75.74
2022-09-23T03:43:21.943Z,75.70
2022-09-23T03:47:02.298Z,76.08
2022-09-23T03:50:39.237Z,75.82
2022-09-23T03:54:16.368Z,75.92
2022-09-23T03:57:53.218Z,75.69
2022-09-23T04:01:30.716Z,75.88
2022-09-23T04:05:09.650Z,75.86
2022-09-23T04:08:46.809Z,75.53
2022-09-23T04:12:23.437Z,75.55
2022-09-23T04:16:00.257Z,75.55
2022-09-23T04:19:37.775Z,75.59
2022-09-23T04:23:16.190Z,75.70
2022-09-23T04:26:54.906Z,76.12
2022-09-23T04:30:31.780Z,75.07
2022-09-23T04:34:10.318Z,75.03
2022-09-23T04:37:48.435Z,74.88
2022-09-23T04:41:25.560Z,75.09
2022-09-23T04:45:02.364Z,75.06
2022-09-23T04:48:41.379Z,75.37
2022-09-23T04:52:19.116Z,75.23
2022-09-23T04:56:16.690Z,75.24
2022-09-23T04:59:53.854Z,75.09
2022-09-23T05:03:31.047Z,75.23
2022-09-23T05:07:09.381Z,74.86
2022-09-23T05:10:47.083Z,75.11
2022-09-23T05:14:24.962Z,74.82
2022-09-23T05:18:03.663Z,74.88
2022-09-23T05:21:40.457Z,74.86
2022-09-23T05:25:17.717Z,74.85
2022-09-23T05:28:57.111Z,74.77
2022-09-23T05:32:53.768Z,74.73
2022-09-23T05:36:11.298Z,74.67
2022-09-23T05:39:48.332Z,74.41
2022-09-23T05:43:26.435Z,74.48
2022-09-23T05:47:05.645Z,74.72
2022-09-23T05:50:52.889Z,74.46
2022-09-23T05:54:29.898Z,74.39
2022-09-23T05:58:07.503Z,74.26
2022-09-23T06:01:44.987Z,74.39
2022-09-23T06:05:22.798Z,74.33
2022-09-23T06:09:00.826Z,74.09
2022-09-23T06:12:38.284Z,74.21
2022-09-23T06:16:16.571Z,73.96
2022-09-23T06:19:53.935Z,73.91
2022-09-23T06:23:31.890Z,73.72
2022-09-23T06:27:10.256Z,73.71
2022-09-23T06:30:48.216Z,73.38
2022-09-23T06:34:25.758Z,73.42
2022-09-23T06:38:06.142Z,73.47
2022-09-23T06:41:45.501Z,73.49
2022-09-23T06:45:23.228Z,73.04
2022-09-23T06:49:00.013Z,73.30
2022-09-23T06:52:36.858Z,72.57
2022-09-23T06:56:16.060Z,71.84
2022-09-23T06:59:54.309Z,71.61
2022-09-23T07:03:31.533Z,71.48
2022-09-23T07:07:09.482Z,71.19
2022-09-23T07:10:59.144Z,71.38
2022-09-23T07:14:36.823Z,70.99
2022-09-23T07:18:14.793Z,71.05
2022-09-23T07:21:52.351Z,70.75
2022-09-23T07:25:30.326Z,70.61
2022-09-23T07:29:07.882Z,70.73
2022-09-23T07:32:48.896Z,70.12
2022-09-23T07:36:29.993Z,70.11
2022-09-23T07:40:07.583Z,69.69
2022-09-23T07:44:05.537Z,69.48
2022-09-23T07:47:21.415Z,68.95
2022-09-23T07:50:58.771Z,68.88
2022-09-23T07:54:37.258Z,68.76
2022-09-23T07:58:16.145Z,68.38
2022-09-23T08:01:55.016Z,68.15
2022-09-23T08:05:32.488Z,67.83
2022-09-23T08:09:10.614Z,67.71
2022-09-23T08:12:47.933Z,67.25
2022-09-23T08:16:26.046Z,66.70
2022-09-23T08:20:03.691Z,66.25
2022-09-23T08:23:40.495Z,66.02
2022-09-23T08:27:18.976Z,65.80
2022-09-23T08:30:58.423Z,65.70
2022-09-23T08:34:35.739Z,65.43
2022-09-23T08:38:14.023Z,65.41
2022-09-23T08:42:25.789Z,65.47
2022-09-23T08:46:08.333Z,65.44
2022-09-23T08:49:51.203Z,65.40
2022-09-23T08:53:38.550Z,65.24
2022-09-23T08:57:33.762Z,64.97
2022-09-23T09:01:22.134Z,64.86
2022-09-23T09:05:05.768Z,64.73
2022-09-23T09:08:47.210Z,64.78
2022-09-23T09:12:40.218Z,64.69
2022-09-23T09:16:58.232Z,64.63
2022-09-23T09:20:39.856Z,64.21
2022-09-23T09:24:35.739Z,63.53
2022-09-23T09:28:25.271Z,63.35
2022-09-23T09:32:24.553Z,63.03
2022-09-23T09:36:15.304Z,62.58
2022-09-23T09:39:52.940Z,62.17
2022-09-23T09:43:32.449Z,61.79
2022-09-23T09:47:31.114Z,61.13
2022-09-23T09:51:34.530Z,61.43
2022-09-23T09:55:12.224Z,61.03
2022-09-23T09:59:01.754Z,60.12
2022-09-23T10:02:40.133Z,59.36
2022-09-23T10:06:24.699Z,59.59
2022-09-23T10:10:31.682Z,58.78
2022-09-23T10:14:15.905Z,59.03
2022-09-23T10:17:53.915Z,57.21
2022-09-23T10:21:36.948Z,58.01
2022-09-23T10:25:21.169Z,58.47
2022-09-23T10:29:01.995Z,58.98
2022-09-23T10:32:46.541Z,59.56
2022-09-23T10:36:23.891Z,60.11
2022-09-23T10:40:14.815Z,60.27
2022-09-23T10:44:17.497Z,60.47
2022-09-23T10:48:06.684Z,60.75
2022-09-23T10:52:01.707Z,60.76
2022-09-23T10:56:07.918Z,60.26
2022-09-23T11:00:03.064Z,60.25
2022-09-23T11:04:01.449Z,59.37
2022-09-23T11:08:29.878Z,60.01
2022-09-23T11:12:19.559Z,60.55
2022-09-23T11:16:30.944Z,59.77
2022-09-23T11:20:08.676Z,60.05
2022-09-23T11:24:25.617Z,60.21
2022-09-23T11:28:06.555Z,60.20
2022-09-23T11:31:59.723Z,60.28
2022-09-23T11:36:07.518Z,60.21
2022-09-23T11:39:30.242Z,60.82
2022-09-23T11:43:18.557Z,61.04
2022-09-23T11:47:18.886Z,60.73
2022-09-23T11:51:06.072Z,60.06
2022-09-23T11:54:56.374Z,59.54
2022-09-23T11:58:46.544Z,59.13
2022-09-23T12:02:41.863Z,59.26
2022-09-23T12:06:23.106Z,59.53
2022-09-23T12:10:05.861Z,59.99
2022-09-23T12:14:12.577Z,60.36
2022-09-23T12:18:22.228Z,60.07
2022-09-23T12:22:22.203Z,60.31
2022-09-23T12:26:12.507Z,59.39
2022-09-23T12:29:55.987Z,58.80
2022-09-23T12:33:34.311Z,59.14
2022-09-23T12:37:14.125Z,59.33
2022-09-23T12:40:54.732Z,59.02
2022-09-23T12:44:40.109Z,59.00
2022-09-23T12:48:18.487Z,59.45
2022-09-23T12:52:10.973Z,59.80
2022-09-23T12:55:49.506Z,60.36
2022-09-23T12:59:52.707Z,60.56
2022-09-23T13:03:31.197Z,60.56
2022-09-23T13:07:09.662Z,60.55
2022-09-23T13:10:58.190Z,60.07
2022-09-23T13:14:35.660Z,60.77
2022-09-23T13:18:19.555Z,60.25
2022-09-23T13:22:08.779Z,60.78
2022-09-23T13:25:46.697Z,60.03
2022-09-23T13:29:54.790Z,60.30
2022-09-23T13:33:42.635Z,60.01
2022-09-23T13:37:23.791Z,60.52
2022-09-23T13:41:09.989Z,60.10
2022-09-23T13:44:48.259Z,60.39
2022-09-23T13:48:26.647Z,60.77
2022-09-23T13:52:04.825Z,60.64
2022-09-23T13:55:41.768Z,59.76
2022-09-23T13:59:25.050Z,60.20
2022-09-23T14:03:16.770Z,60.65
2022-09-23T14:06:54.671Z,60.82
2022-09-23T14:10:34.516Z,61.54
2022-09-23T14:14:15.301Z,61.73
2022-09-23T14:18:03.406Z,61.81
2022-09-23T14:21:41.425Z,62.52
2022-09-23T14:25:19.956Z,62.32
2022-09-23T14:28:57.100Z,60.76
2022-09-23T14:32:35.211Z,58.45
2022-09-23T14:36:16.536Z,56.90
2022-09-23T14:39:57.813Z,56.52
2022-09-23T14:43:35.189Z,56.02
2022-09-23T14:47:14.533Z,55.58
2022-09-23T14:50:57.783Z,56.98
2022-09-23T14:54:39.066Z,57.09
2022-09-23T14:58:19.524Z,58.44
2022-09-23T15:01:56.759Z,59.15
2022-09-23T15:05:43.458Z,59.94
2022-09-23T15:09:35.675Z,60.63
2022-09-23T15:13:18.201Z,60.15
2022-09-23T15:16:56.300Z,59.63
2022-09-23T15:20:35.709Z,60.20
2022-09-23T15:24:42.341Z,61.54
2022-09-23T15:28:20.266Z,61.56
2022-09-23T15:31:58.403Z,61.31
2022-09-23T15:35:36.649Z,59.97
2022-09-23T15:39:14.924Z,60.97
2022-09-23T15:42:59.669Z,60.60
2022-09-23T15:46:37.211Z,60.63
2022-09-23T15:50:14.264Z,61.02
2022-09-23T15:53:51.921Z,61.63
2022-09-23T15:57:30.914Z,61.47
2022-09-23T16:01:35.546Z,61.16
2022-09-23T16:05:23.191Z,61.43
2022-09-23T16:09:01.048Z,61.62
2022-09-23T16:12:38.581Z,61.80
2022-09-23T16:16:16.125Z,61.25
2022-09-23T16:19:54.550Z,61.52
2022-09-23T16:23:37.197Z,61.80
2022-09-23T16:27:18.896Z,62.03
2022-09-23T16:30:56.557Z,62.01
2022-09-23T16:34:37.812Z,61.67
2022-09-23T16:38:17.575Z,61.78
2022-09-23T16:41:54.642Z,62.56
2022-09-23T16:45:31.986Z,62.15
2022-09-23T16:49:09.732Z,62.49
2022-09-23T16:52:51.206Z,62.79
2022-09-23T16:56:30.266Z,63.33
2022-09-23T17:00:14.901Z,63.37
2022-09-23T17:03:53.319Z,63.48
2022-09-23T17:07:30.698Z,64.40
2022-09-23T17:11:11.045Z,64.79
2022-09-23T17:14:49.278Z,64.72
2022-09-23T17:18:27.541Z,65.79
2022-09-23T17:22:04.413Z,65.55
2022-09-23T17:25:48.369Z,66.04
2022-09-23T17:29:26.314Z,66.17
2022-09-23T17:33:04.023Z,66.66
2022-09-23T17:36:41.105Z,66.33
2022-09-23T17:40:19.057Z,66.62
2022-09-23T17:43:57.863Z,66.31
2022-09-23T17:47:38.348Z,66.68
2022-09-23T17:51:18.793Z,67.15
2022-09-23T17:54:55.924Z,67.61
2022-09-23T17:58:35.816Z,67.63
2022-09-23T18:02:15.568Z,67.94
2022-09-23T18:05:53.653Z,68.43
2022-09-23T18:09:30.470Z,68.36
2022-09-23T18:13:09.070Z,68.23
2022-09-23T18:16:48.666Z,68.09
2022-09-23T18:20:25.797Z,68.06
2022-09-23T18:24:28.547Z,67.84
2022-09-23T18:28:02.846Z,67.84
2022-09-23T18:31:41.230Z,67.49
2022-09-23T18:35:18.759Z,66.94
2022-09-23T18:38:56.038Z,66.98
2022-09-23T18:42:32.903Z,66.69
2022-09-23T18:46:13.947Z,66.56
2022-09-23T18:49:51.079Z,66.61
2022-09-23T18:53:28.420Z,66.40
2022-09-23T18:57:06.701Z,66.61
2022-09-23T19:00:44.639Z,66.80
2022-09-23T19:04:26.537Z,66.55
2022-09-23T19:08:04.566Z,66.46
2022-09-23T19:11:43.055Z,66.55
2022-09-23T19:15:20.405Z,66.56
2022-09-23T19:18:59.712Z,66.28
2022-09-23T19:22:36.635Z,66.17
2022-09-23T19:26:15.018Z,66.25
2022-09-23T19:29:54.427Z,65.69
2022-09-23T19:33:31.916Z,65.50
2022-09-23T19:37:09.878Z,65.50
2022-09-23T19:40:49.993Z,65.17
2022-09-23T19:44:28.387Z,64.95
2022-09-23T19:48:06.111Z,64.52
2022-09-23T19:51:43.105Z,64.52
2022-09-23T19:55:20.687Z,64.68
2022-09-23T19:58:59.232Z,64.91
2022-09-23T20:02:37.201Z,65.00
2022-09-23T20:06:15.848Z,64.90
2022-09-23T20:09:53.842Z,65.11
2022-09-23T20:13:31.134Z,65.15
2022-09-23T20:17:08.576Z,65.24
2022-09-23T20:20:54.275Z,65.26
2022-09-23T20:24:31.502Z,65.27
2022-09-23T20:28:09.571Z,65.69
2022-09-23T20:31:48.320Z,65.52
2022-09-23T20:35:25.678Z,65.73
2022-09-23T20:39:05.029Z,65.92
2022-09-23T20:42:42.810Z,65.95
2022-09-23T20:46:20.805Z,66.15
2022-09-23T20:49:57.673Z,66.28
2022-09-23T20:53:35.599Z,66.54
2022-09-23T20:57:14.574Z,66.58
2022-09-23T21:00:51.812Z,66.79
2022-09-23T21:04:30.303Z,66.95
2022-09-23T21:08:07.199Z,67.00
2022-09-23T21:11:44.677Z,66.99
2022-09-23T21:15:22.659Z,67.26
2022-09-23T21:18:59.777Z,67.24
2022-09-23T21:22:36.851Z,67.54
2022-09-23T21:26:20.664Z,67.50
2022-09-23T21:29:58.083Z,67.41
2022-09-23T21:33:35.650Z,67.44
2022-09-23T21:37:13.004Z,67.67
2022-09-23T21:40:57.457Z,67.80
2022-09-23T21:44:34.568Z,68.01
2022-09-23T21:48:13.565Z,68.16
2022-09-23T21:51:51.328Z,68.31
2022-09-23T21:55:29.991Z,68.35
2022-09-23T21:59:08.048Z,68.38
2022-09-23T22:02:46.156Z,68.42
2022-09-23T22:06:27.273Z,68.23
2022-09-23T22:10:05.062Z,68.46
2022-09-23T22:14:05.655Z,68.53
2022-09-23T22:17:19.691Z,68.50
2022-09-23T22:20:58.489Z,68.60
2022-09-23T22:24:35.774Z,68.55
2022-09-23T22:28:13.582Z,68.82
2022-09-23T22:31:52.172Z,68.71
2022-09-23T22:35:30.136Z,68.76
2022-09-23T22:39:08.614Z,68.85
2022-09-23T22:42:45.871Z,68.78
2022-09-23T22:46:23.575Z,68.75
2022-09-23T22:50:00.883Z,68.73
2022-09-23T22:53:38.033Z,68.78
2022-09-23T22:57:18.078Z,68.97
2022-09-23T23:00:56.873Z,68.81
2022-09-23T23:04:34.092Z,68.70
2022-09-23T23:08:10.937Z,68.82
2022-09-23T23:11:48.498Z,69.05
2022-09-23T23:15:26.056Z,69.06
2022-09-23T23:19:08.221Z,68.98
2022-09-23T23:22:45.577Z,69.14
2022-09-23T23:26:27.939Z,69.13
2022-09-23T23:30:06.019Z,69.10
2022-09-23T23:33:43.611Z,69.15
2022-09-23T23:37:21.207Z,69.16
2022-09-23T23:41:03.309Z,69.16
2022-09-23T23:44:40.452Z,68.98
2022-09-23T23:48:19.332Z,68.73
2022-09-23T23:51:56.665Z,68.82
2022-09-23T23:55:38.352Z,68.62
2022-09-23T23:59:16.362Z,68.75
